sensor_id;sensor_type;location;lat;lon;timestamp;pressure;altitude;pressure_sealevel;temperature;humidity
13068;BME280;6600;51.362;6.686;2023-08-17T00:02:16;101469.72;;;18.64;100.00
13068;BME280;6600;51.362;6.686;2023-08-17T00:04:41;101468.63;;;18.65;100.00
13068;BME280;6600;51.362;6.686;2023-08-17T00:07:07;101468.06;;;18.63;100.00
13068;BME280;6600;51.362;6.686;2023-08-17T00:09:32;101474.50;;;18.57;100.00
13068;BME280;6600;51.362;6.686;2023-08-17T00:11:58;101477.03;;;18.47;100.00
13068;BME280;6600;51.362;6.686;2023-08-17T00:14:23;101476.31;;;18.52;100.00
13068;BME280;6600;51.362;6.686;2023-08-17T00:16:49;101482.97;;;18.61;100.00
13068;BME280;6600;51.362;6.686;2023-08-17T00:19:16;101479.44;;;18.60;100.00
13068;BME280;6600;51.362;6.686;2023-08-17T00:24:09;101462.00;;;18.56;100.00
13068;BME280;6600;51.362;6.686;2023-08-17T00:26:34;101467.34;;;18.51;100.00
13068;BME280;6600;51.362;6.686;2023-08-17T00:28:59;101463.19;;;18.65;100.00
13068;BME280;6600;51.362;6.686;2023-08-17T00:31:24;101456.25;;;18.53;100.00
13068;BME280;6600;51.362;6.686;2023-08-17T00:33:50;101456.50;;;18.51;100.00
13068;BME280;6600;51.362;6.686;2023-08-17T00:36:15;101453.19;;;18.49;100.00
13068;BME280;6600;51.362;6.686;2023-08-17T00:38:41;101456.50;;;18.51;100.00
13068;BME280;6600;51.362;6.686;2023-08-17T00:41:06;101451.22;;;18.45;100.00
13068;BME280;6600;51.362;6.686;2023-08-17T00:43:31;101455.34;;;18.47;100.00
13068;BME280;6600;51.362;6.686;2023-08-17T00:45:57;101456.97;;;18.48;100.00
13068;BME280;6600;51.362;6.686;2023-08-17T00:48:23;101460.28;;;18.50;100.00
13068;BME280;6600;51.362;6.686;2023-08-17T00:50:50;101464.63;;;18.51;100.00
13068;BME280;6600;51.362;6.686;2023-08-17T00:53:17;101464.03;;;18.49;100.00
13068;BME280;6600;51.362;6.686;2023-08-17T00:55:43;101455.91;;;18.49;100.00
13068;BME280;6600;51.362;6.686;2023-08-17T00:58:09;101450.25;;;18.51;100.00
13068;BME280;6600;51.362;6.686;2023-08-17T01:00:35;101451.53;;;18.48;100.00
13068;BME280;6600;51.362;6.686;2023-08-17T01:03:00;101437.72;;;18.50;100.00
13068;BME280;6600;51.362;6.686;2023-08-17T01:05:25;101441.13;;;18.57;100.00
13068;BME280;6600;51.362;6.686;2023-08-17T01:07:51;101447.88;;;18.54;100.00
13068;BME280;6600;51.362;6.686;2023-08-17T01:10:16;101444.00;;;18.50;100.00
13068;BME280;6600;51.362;6.686;2023-08-17T01:15:22;101439.78;;;18.43;100.00
13068;BME280;6600;51.362;6.686;2023-08-17T01:18:00;101430.31;;;18.45;100.00
13068;BME280;6600;51.362;6.686;2023-08-17T01:20:29;101441.34;;;18.39;100.00
13068;BME280;6600;51.362;6.686;2023-08-17T01:23:05;101437.13;;;18.26;100.00
13068;BME280;6600;51.362;6.686;2023-08-17T01:25:30;101435.78;;;18.29;100.00
13068;BME280;6600;51.362;6.686;2023-08-17T01:27:56;101434.97;;;18.28;100.00
13068;BME280;6600;51.362;6.686;2023-08-17T01:30:22;101437.34;;;18.25;100.00
13068;BME280;6600;51.362;6.686;2023-08-17T01:32:51;101428.88;;;18.21;100.00
13068;BME280;6600;51.362;6.686;2023-08-17T01:35:30;101425.75;;;18.29;100.00
13068;BME280;6600;51.362;6.686;2023-08-17T01:38:05;101431.09;;;18.41;100.00
13068;BME280;6600;51.362;6.686;2023-08-17T01:40:33;101426.41;;;18.36;100.00
13068;BME280;6600;51.362;6.686;2023-08-17T01:42:59;101422.97;;;18.24;100.00
13068;BME280;6600;51.362;6.686;2023-08-17T01:45:25;101434.53;;;18.36;100.00
13068;BME280;6600;51.362;6.686;2023-08-17T01:47:50;101426.41;;;18.36;100.00
13068;BME280;6600;51.362;6.686;2023-08-17T01:50:16;101432.34;;;18.33;100.00
13068;BME280;6600;51.362;6.686;2023-08-17T01:52:41;101438.31;;;18.35;100.00
13068;BME280;6600;51.362;6.686;2023-08-17T01:55:07;101423.59;;;18.31;100.00
13068;BME280;6600;51.362;6.686;2023-08-17T01:57:33;101436.66;;;18.34;100.00
13068;BME280;6600;51.362;6.686;2023-08-17T01:59:59;101424.75;;;18.35;100.00
13068;BME280;6600;51.362;6.686;2023-08-17T02:02:25;101432.06;;;18.35;100.00
13068;BME280;6600;51.362;6.686;2023-08-17T02:04:50;101429.03;;;18.31;100.00
13068;BME280;6600;51.362;6.686;2023-08-17T02:07:15;101424.09;;;18.28;100.00
13068;BME280;6600;51.362;6.686;2023-08-17T02:09:40;101429.53;;;18.28;100.00
13068;BME280;6600;51.362;6.686;2023-08-17T02:12:06;101435.47;;;18.25;100.00
13068;BME280;6600;51.362;6.686;2023-08-17T02:14:32;101424.09;;;18.28;100.00
13068;BME280;6600;51.362;6.686;2023-08-17T02:16:58;101432.25;;;18.28;100.00
13068;BME280;6600;51.362;6.686;2023-08-17T02:19:23;101430.88;;;18.26;100.00
13068;BME280;6600;51.362;6.686;2023-08-17T02:21:48;101435.44;;;18.42;100.00
13068;BME280;6600;51.362;6.686;2023-08-17T02:24:13;101423.09;;;18.34;100.00
13068;BME280;6600;51.362;6.686;2023-08-17T02:26:39;101421.97;;;18.30;100.00
13068;BME280;6600;51.362;6.686;2023-08-17T02:29:05;101425.25;;;18.32;100.00
13068;BME280;6600;51.362;6.686;2023-08-17T02:31:30;101413.41;;;18.38;100.00
13068;BME280;6600;51.362;6.686;2023-08-17T02:33:56;101417.63;;;18.29;100.00
13068;BME280;6600;51.362;6.686;2023-08-17T02:36:28;101413.72;;;18.42;100.00
13068;BME280;6600;51.362;6.686;2023-08-17T02:38:54;101411.63;;;18.27;100.00
13068;BME280;6600;51.362;6.686;2023-08-17T02:41:20;101413.75;;;18.25;100.00
13068;BME280;6600;51.362;6.686;2023-08-17T02:43:45;101419.31;;;18.35;100.00
13068;BME280;6600;51.362;6.686;2023-08-17T02:46:11;101418.19;;;18.31;100.00
13068;BME280;6600;51.362;6.686;2023-08-17T02:48:36;101408.97;;;18.32;100.00
13068;BME280;6600;51.362;6.686;2023-08-17T02:51:01;101400.84;;;18.32;100.00
13068;BME280;6600;51.362;6.686;2023-08-17T02:53:27;101409.84;;;18.16;100.00
13068;BME280;6600;51.362;6.686;2023-08-17T02:55:52;101407.13;;;18.16;100.00
13068;BME280;6600;51.362;6.686;2023-08-17T02:58:18;101406.03;;;18.17;100.00
13068;BME280;6600;51.362;6.686;2023-08-17T03:00:44;101404.91;;;18.13;100.00
13068;BME280;6600;51.362;6.686;2023-08-17T03:03:09;101403.59;;;18.15;100.00
13068;BME280;6600;51.362;6.686;2023-08-17T03:05:34;101400.41;;;18.02;100.00
13068;BME280;6600;51.362;6.686;2023-08-17T03:08:00;101407.47;;;18.03;100.00
13068;BME280;6600;51.362;6.686;2023-08-17T03:10:25;101418.97;;;18.10;100.00
13068;BME280;6600;51.362;6.686;2023-08-17T03:12:51;101412.31;;;18.01;100.00
13068;BME280;6600;51.362;6.686;2023-08-17T03:15:16;101411.75;;;17.99;100.00
13068;BME280;6600;51.362;6.686;2023-08-17T03:17:41;101410.41;;;18.01;100.00
13068;BME280;6600;51.362;6.686;2023-08-17T03:20:07;101411.81;;;18.04;100.00
13068;BME280;6600;51.362;6.686;2023-08-17T03:22:34;101413.13;;;17.85;100.00
13068;BME280;6600;51.362;6.686;2023-08-17T03:24:59;101414.94;;;17.79;100.00
13068;BME280;6600;51.362;6.686;2023-08-17T03:27:24;101412.81;;;17.81;100.00
13068;BME280;6600;51.362;6.686;2023-08-17T03:29:50;101414.78;;;17.86;100.00
13068;BME280;6600;51.362;6.686;2023-08-17T03:32:16;101414.78;;;17.86;100.00
13068;BME280;6600;51.362;6.686;2023-08-17T03:34:41;101419.63;;;17.84;100.00
13068;BME280;6600;51.362;6.686;2023-08-17T03:37:06;101415.75;;;17.80;100.00
13068;BME280;6600;51.362;6.686;2023-08-17T03:39:32;101414.78;;;17.86;100.00
13068;BME280;6600;51.362;6.686;2023-08-17T03:41:57;101414.28;;;17.89;100.00
13068;BME280;6600;51.362;6.686;2023-08-17T03:44:22;101412.97;;;17.91;100.00
13068;BME280;6600;51.362;6.686;2023-08-17T03:46:48;101423.56;;;17.93;100.00
13068;BME280;6600;51.362;6.686;2023-08-17T03:49:13;101419.88;;;17.99;100.00
13068;BME280;6600;51.362;6.686;2023-08-17T03:51:39;101417.56;;;17.91;100.00
13068;BME280;6600;51.362;6.686;2023-08-17T03:54:05;101408.59;;;17.90;100.00
13068;BME280;6600;51.362;6.686;2023-08-17T03:56:30;101405.06;;;17.90;100.00
13068;BME280;6600;51.362;6.686;2023-08-17T03:58:55;101405.16;;;17.95;100.00
13068;BME280;6600;51.362;6.686;2023-08-17T04:01:21;101405.16;;;17.95;100.00
13068;BME280;6600;51.362;6.686;2023-08-17T04:03:46;101417.56;;;17.91;100.00
13068;BME280;6600;51.362;6.686;2023-08-17T04:06:11;101415.13;;;17.89;100.00
13068;BME280;6600;51.362;6.686;2023-08-17T04:08:37;101425.13;;;17.89;100.00
13068;BME280;6600;51.362;6.686;2023-08-17T04:11:03;101423.56;;;17.93;100.00
13068;BME280;6600;51.362;6.686;2023-08-17T04:13:28;101418.63;;;17.90;100.00
13068;BME280;6600;51.362;6.686;2023-08-17T04:15:54;101432.03;;;17.96;100.00
13068;BME280;6600;51.362;6.686;2023-08-17T04:18:19;101430.06;;;17.92;100.00
13068;BME280;6600;51.362;6.686;2023-08-17T04:20:44;101420.84;;;17.93;100.00
13068;BME280;6600;51.362;6.686;2023-08-17T04:23:10;101435.50;;;17.92;100.00
13068;BME280;6600;51.362;6.686;2023-08-17T04:25:35;101427.25;;;17.87;100.00
13068;BME280;6600;51.362;6.686;2023-08-17T04:28:00;101427.22;;;17.53;100.00
13068;BME280;6600;51.362;6.686;2023-08-17T04:30:26;101427.75;;;17.67;100.00
13068;BME280;6600;51.362;6.686;2023-08-17T04:32:51;101434.16;;;17.78;100.00
13068;BME280;6600;51.362;6.686;2023-08-17T04:35:18;101437.44;;;17.80;100.00
13068;BME280;6600;51.362;6.686;2023-08-17T04:37:43;101432.13;;;17.85;100.00
13068;BME280;6600;51.362;6.686;2023-08-17T04:40:09;101439.59;;;17.78;100.00
13068;BME280;6600;51.362;6.686;2023-08-17T04:42:35;101439.66;;;17.83;100.00
13068;BME280;6600;51.362;6.686;2023-08-17T04:45:01;101439.03;;;17.92;100.00
13068;BME280;6600;51.362;6.686;2023-08-17T04:47:26;101444.19;;;17.94;100.00
13068;BME280;6600;51.362;6.686;2023-08-17T04:49:52;101447.78;;;17.83;100.00
13068;BME280;6600;51.362;6.686;2023-08-17T04:52:17;101436.63;;;17.79;100.00
13068;BME280;6600;51.362;6.686;2023-08-17T04:54:42;101429.91;;;17.82;100.00
13068;BME280;6600;51.362;6.686;2023-08-17T04:57:07;101436.94;;;17.83;100.00
13068;BME280;6600;51.362;6.686;2023-08-17T04:59:33;101442.97;;;17.85;100.00
13068;BME280;6600;51.362;6.686;2023-08-17T05:01:58;101433.19;;;17.84;100.00
13068;BME280;6600;51.362;6.686;2023-08-17T05:04:23;101438.59;;;17.84;100.00
13068;BME280;6600;51.362;6.686;2023-08-17T05:06:49;101436.38;;;17.81;100.00
13068;BME280;6600;51.362;6.686;2023-08-17T05:09:14;101445.50;;;17.91;100.00
13068;BME280;6600;51.362;6.686;2023-08-17T05:11:39;101449.13;;;17.97;100.00
13068;BME280;6600;51.362;6.686;2023-08-17T05:14:05;101445.34;;;17.98;100.00
13068;BME280;6600;51.362;6.686;2023-08-17T05:16:30;101450.59;;;17.88;100.00
13068;BME280;6600;51.362;6.686;2023-08-17T05:18:55;101452.97;;;18.01;100.00
13068;BME280;6600;51.362;6.686;2023-08-17T05:21:22;101457.41;;;18.07;100.00
13068;BME280;6600;51.362;6.686;2023-08-17T05:23:48;101448.81;;;18.10;100.00
13068;BME280;6600;51.362;6.686;2023-08-17T05:26:13;101455.84;;;18.11;100.00
13068;BME280;6600;51.362;6.686;2023-08-17T05:28:38;101445.69;;;18.01;100.00
13068;BME280;6600;51.362;6.686;2023-08-17T05:31:05;101455.84;;;18.11;100.00
13068;BME280;6600;51.362;6.686;2023-08-17T05:33:31;101460.94;;;18.07;100.00
13068;BME280;6600;51.362;6.686;2023-08-17T05:35:57;101453.56;;;18.03;100.00
13068;BME280;6600;51.362;6.686;2023-08-17T05:38:22;101460.13;;;18.07;100.00
13068;BME280;6600;51.362;6.686;2023-08-17T05:40:47;101454.13;;;18.05;100.00
13068;BME280;6600;51.362;6.686;2023-08-17T05:43:13;101453.25;;;17.99;100.00
13068;BME280;6600;51.362;6.686;2023-08-17T05:45:38;101447.16;;;18.09;100.00
13068;BME280;6600;51.362;6.686;2023-08-17T05:48:03;101455.28;;;18.09;100.00
13068;BME280;6600;51.362;6.686;2023-08-17T05:50:29;101450.28;;;18.01;100.00
13068;BME280;6600;51.362;6.686;2023-08-17T05:52:55;101450.69;;;18.09;100.00
13068;BME280;6600;51.362;6.686;2023-08-17T05:55:21;101464.09;;;17.99;100.00
13068;BME280;6600;51.362;6.686;2023-08-17T05:57:46;101462.28;;;18.05;100.00
13068;BME280;6600;51.362;6.686;2023-08-17T06:00:12;101459.66;;;18.10;100.00
13068;BME280;6600;51.362;6.686;2023-08-17T06:02:38;101453.72;;;18.13;100.00
13068;BME280;6600;51.362;6.686;2023-08-17T06:05:04;101444.09;;;18.22;100.00
13068;BME280;6600;51.362;6.686;2023-08-17T06:07:29;101450.44;;;18.11;100.00
13068;BME280;6600;51.362;6.686;2023-08-17T06:09:55;101447.31;;;18.19;100.00
13068;BME280;6600;51.362;6.686;2023-08-17T06:12:20;101449.28;;;18.24;100.00
13068;BME280;6600;51.362;6.686;2023-08-17T06:14:45;101450.59;;;18.21;100.00
13068;BME280;6600;51.362;6.686;2023-08-17T06:17:11;101462.59;;;18.25;100.00
13068;BME280;6600;51.362;6.686;2023-08-17T06:19:36;101454.38;;;18.20;100.00
13068;BME280;6600;51.362;6.686;2023-08-17T06:22:01;101465.25;;;18.20;100.00
13068;BME280;6600;51.362;6.686;2023-08-17T06:24:27;101463.59;;;18.19;100.00
13068;BME280;6600;51.362;6.686;2023-08-17T06:26:52;101467.19;;;18.25;100.00
13068;BME280;6600;51.362;6.686;2023-08-17T06:29:18;101464.06;;;18.33;100.00
13068;BME280;6600;51.362;6.686;2023-08-17T06:31:44;101470.31;;;18.33;100.00
13068;BME280;6600;51.362;6.686;2023-08-17T06:34:09;101470.31;;;18.33;100.00
13068;BME280;6600;51.362;6.686;2023-08-17T06:36:38;101466.03;;;18.37;100.00
13068;BME280;6600;51.362;6.686;2023-08-17T06:39:03;101467.66;;;18.38;100.00
13068;BME280;6600;51.362;6.686;2023-08-17T06:41:29;101471.22;;;18.39;100.00
13068;BME280;6600;51.362;6.686;2023-08-17T06:43:54;101465.53;;;18.40;100.00
13068;BME280;6600;51.362;6.686;2023-08-17T06:46:20;101471.63;;;18.47;100.00
13068;BME280;6600;51.362;6.686;2023-08-17T06:48:45;101476.75;;;18.27;100.00
13068;BME280;6600;51.362;6.686;2023-08-17T06:51:10;101464.38;;;18.36;100.00
13068;BME280;6600;51.362;6.686;2023-08-17T06:53:36;101467.16;;;18.41;100.00
13068;BME280;6600;51.362;6.686;2023-08-17T06:56:01;101471.94;;;18.34;100.00
13068;BME280;6600;51.362;6.686;2023-08-17T06:58:26;101462.25;;;18.38;100.00
13068;BME280;6600;51.362;6.686;2023-08-17T07:00:52;101470.31;;;18.33;100.00
13068;BME280;6600;51.362;6.686;2023-08-17T07:03:17;101461.09;;;18.34;100.00
13068;BME280;6600;51.362;6.686;2023-08-17T07:05:43;101464.72;;;18.40;100.00
13068;BME280;6600;51.362;6.686;2023-08-17T07:08:08;101472.59;;;18.41;100.00
13068;BME280;6600;51.362;6.686;2023-08-17T07:10:34;101478.34;;;18.45;100.00
13068;BME280;6600;51.362;6.686;2023-08-17T07:12:59;101474.91;;;18.49;100.00
13068;BME280;6600;51.362;6.686;2023-08-17T07:15:28;101472.63;;;18.58;100.00
13068;BME280;6600;51.362;6.686;2023-08-17T07:17:54;101472.28;;;18.54;100.00
13068;BME280;6600;51.362;6.686;2023-08-17T07:20:19;101480.50;;;18.59;100.00
13068;BME280;6600;51.362;6.686;2023-08-17T07:22:44;101482.16;;;18.60;100.00
13068;BME280;6600;51.362;6.686;2023-08-17T07:25:10;101484.09;;;18.48;100.00
13068;BME280;6600;51.362;6.686;2023-08-17T07:27:35;101479.44;;;18.44;100.00
13068;BME280;6600;51.362;6.686;2023-08-17T07:30:00;101486.34;;;18.51;100.00
13068;BME280;6600;51.362;6.686;2023-08-17T07:32:26;101487.25;;;18.40;100.00
13068;BME280;6600;51.362;6.686;2023-08-17T07:34:51;101490.16;;;18.50;100.00
13068;BME280;6600;51.362;6.686;2023-08-17T07:37:16;101483.16;;;18.54;100.00
13068;BME280;6600;51.362;6.686;2023-08-17T07:39:42;101487.91;;;18.47;100.00
13068;BME280;6600;51.362;6.686;2023-08-17T07:42:07;101492.50;;;18.47;100.00
13068;BME280;6600;51.362;6.686;2023-08-17T07:44:32;101498.75;;;18.47;100.00
13068;BME280;6600;51.362;6.686;2023-08-17T07:46:59;101500.56;;;18.58;100.00
13068;BME280;6600;51.362;6.686;2023-08-17T07:49:25;101508.63;;;18.70;100.00
13068;BME280;6600;51.362;6.686;2023-08-17T07:51:50;101505.56;;;18.66;100.00
13068;BME280;6600;51.362;6.686;2023-08-17T07:54:15;101495.78;;;18.65;100.00
13068;BME280;6600;51.362;6.686;2023-08-17T07:56:41;101500.56;;;18.58;100.00
13068;BME280;6600;51.362;6.686;2023-08-17T07:59:06;101497.94;;;18.63;100.00
13068;BME280;6600;51.362;6.686;2023-08-17T08:01:31;101501.78;;;18.67;100.00
13068;BME280;6600;51.362;6.686;2023-08-17T08:03:57;101501.22;;;18.65;100.00
13068;BME280;6600;51.362;6.686;2023-08-17T08:06:23;101504.59;;;18.56;100.00
13068;BME280;6600;51.362;6.686;2023-08-17T08:08:48;101508.28;;;18.66;100.00
13068;BME280;6600;51.362;6.686;2023-08-17T08:11:13;101506.16;;;18.69;100.00
13068;BME280;6600;51.362;6.686;2023-08-17T08:13:39;101518.13;;;18.73;100.00
13068;BME280;6600;51.362;6.686;2023-08-17T08:16:05;101513.53;;;18.73;100.00
13068;BME280;6600;51.362;6.686;2023-08-17T08:18:30;101517.03;;;18.69;100.00
13068;BME280;6600;51.362;6.686;2023-08-17T08:20:56;101513.72;;;18.66;100.00
13068;BME280;6600;51.362;6.686;2023-08-17T08:23:21;101520.22;;;18.65;100.00
13068;BME280;6600;51.362;6.686;2023-08-17T08:25:46;101519.56;;;18.75;100.00
13068;BME280;6600;51.362;6.686;2023-08-17T08:28:12;101524.72;;;18.77;100.00
13068;BME280;6600;51.362;6.686;2023-08-17T08:30:37;101511.72;;;18.79;100.00
13068;BME280;6600;51.362;6.686;2023-08-17T08:33:02;101509.16;;;18.89;100.00
13068;BME280;6600;51.362;6.686;2023-08-17T08:35:28;101511.91;;;18.94;100.00
13068;BME280;6600;51.362;6.686;2023-08-17T08:37:54;101504.22;;;19.07;100.00
13068;BME280;6600;51.362;6.686;2023-08-17T08:40:26;101503.53;;;19.17;100.00
13068;BME280;6600;51.362;6.686;2023-08-17T08:42:52;101499.09;;;19.11;100.00
13068;BME280;6600;51.362;6.686;2023-08-17T08:45:17;101500.38;;;19.25;100.00
13068;BME280;6600;51.362;6.686;2023-08-17T08:47:44;101502.03;;;19.26;100.00
13068;BME280;6600;51.362;6.686;2023-08-17T08:50:16;101506.22;;;19.39;100.00
13068;BME280;6600;51.362;6.686;2023-08-17T08:53:20;101513.84;;;19.37;100.00
13068;BME280;6600;51.362;6.686;2023-08-17T08:55:38;101507.56;;;19.36;100.00
13068;BME280;6600;51.362;6.686;2023-08-17T08:58:06;101504.03;;;19.36;100.00
13068;BME280;6600;51.362;6.686;2023-08-17T09:00:33;101504.78;;;19.31;100.00
13068;BME280;6600;51.362;6.686;2023-08-17T09:03:01;101504.28;;;19.34;100.00
13068;BME280;6600;51.362;6.686;2023-08-17T09:05:27;101495.06;;;19.35;100.00
13068;BME280;6600;51.362;6.686;2023-08-17T09:07:53;101500.78;;;19.39;100.00
13068;BME280;6600;51.362;6.686;2023-08-17T09:10:19;101504.75;;;19.48;100.00
13068;BME280;6600;51.362;6.686;2023-08-17T09:12:46;101503.41;;;19.50;100.00
13068;BME280;6600;51.362;6.686;2023-08-17T09:15:14;101504.44;;;19.44;100.00
13068;BME280;6600;51.362;6.686;2023-08-17T09:17:40;101505.56;;;19.48;100.00
13068;BME280;6600;51.362;6.686;2023-08-17T09:20:06;101501.72;;;19.44;100.00
13068;BME280;6600;51.362;6.686;2023-08-17T09:22:42;101500.72;;;19.55;100.00
13068;BME280;6600;51.362;6.686;2023-08-17T09:25:22;101497.81;;;19.62;100.00
13068;BME280;6600;51.362;6.686;2023-08-17T09:27:47;101502.59;;;19.50;100.00
13068;BME280;6600;51.362;6.686;2023-08-17T09:30:13;101500.22;;;19.58;100.00
13068;BME280;6600;51.362;6.686;2023-08-17T09:32:38;101498.13;;;19.65;100.00
13068;BME280;6600;51.362;6.686;2023-08-17T09:35:05;101500.34;;;19.69;100.00
13068;BME280;6600;51.362;6.686;2023-08-17T09:37:31;101492.84;;;19.81;100.00
13068;BME280;6600;51.362;6.686;2023-08-17T09:39:56;101488.63;;;19.95;100.00
13068;BME280;6600;51.362;6.686;2023-08-17T09:42:22;101484.75;;;19.86;100.00
13068;BME280;6600;51.362;6.686;2023-08-17T09:44:49;101476.84;;;19.84;100.00
13068;BME280;6600;51.362;6.686;2023-08-17T09:47:16;101485.28;;;19.88;100.00
13068;BME280;6600;51.362;6.686;2023-08-17T09:49:47;101475.06;;;19.68;100.00
13068;BME280;6600;51.362;6.686;2023-08-17T09:52:13;101487.53;;;19.64;100.00
13068;BME280;6600;51.362;6.686;2023-08-17T09:54:39;101483.97;;;19.63;100.00
13068;BME280;6600;51.362;6.686;2023-08-17T09:57:05;101485.56;;;19.59;100.00
13068;BME280;6600;51.362;6.686;2023-08-17T09:59:31;101481.31;;;19.69;100.00
13068;BME280;6600;51.362;6.686;2023-08-17T10:01:58;101481.41;;;19.79;100.00
13068;BME280;6600;51.362;6.686;2023-08-17T10:04:24;101481.75;;;19.87;100.00
13068;BME280;6600;51.362;6.686;2023-08-17T10:06:58;101476.31;;;19.87;100.00
13068;BME280;6600;51.362;6.686;2023-08-17T10:09:29;101470.75;;;20.04;100.00
13068;BME280;6600;51.362;6.686;2023-08-17T10:11:57;101470.28;;;20.17;100.00
13068;BME280;6600;51.362;6.686;2023-08-17T10:14:28;101467.47;;;20.02;100.00
13068;BME280;6600;51.362;6.686;2023-08-17T10:17:01;101471.94;;;20.18;100.00
13068;BME280;6600;51.362;6.686;2023-08-17T10:19:37;101472.34;;;20.00;100.00
13068;BME280;6600;51.362;6.686;2023-08-17T10:22:16;101461.28;;;20.11;100.00
13068;BME280;6600;51.362;6.686;2023-08-17T10:24:44;101462.03;;;20.02;100.00
13068;BME280;6600;51.362;6.686;2023-08-17T10:27:10;101465.59;;;20.07;100.00
13068;BME280;6600;51.362;6.686;2023-08-17T10:29:38;101456.59;;;20.02;100.00
13068;BME280;6600;51.362;6.686;2023-08-17T10:32:05;101464.69;;;19.97;100.00
13068;BME280;6600;51.362;6.686;2023-08-17T10:34:32;101463.69;;;20.03;100.00
13068;BME280;6600;51.362;6.686;2023-08-17T10:36:59;101461.66;;;20.25;100.00
13068;BME280;6600;51.362;6.686;2023-08-17T10:39:26;101465.00;;;20.32;100.00
13068;BME280;6600;51.362;6.686;2023-08-17T10:41:52;101463.94;;;20.38;100.00
13068;BME280;6600;51.362;6.686;2023-08-17T10:44:37;101469.38;;;20.33;100.00
13068;BME280;6600;51.362;6.686;2023-08-17T10:49:45;101470.63;;;20.57;100.00
13068;BME280;6600;51.362;6.686;2023-08-17T10:52:11;101481.94;;;20.39;100.00
13068;BME280;6600;51.362;6.686;2023-08-17T10:54:37;101467.31;;;20.55;100.00
13068;BME280;6600;51.362;6.686;2023-08-17T10:57:39;101475.44;;;20.45;100.00
13068;BME280;6600;51.362;6.686;2023-08-17T11:00:20;101472.97;;;20.44;100.00
13068;BME280;6600;51.362;6.686;2023-08-17T11:02:56;101483.00;;;20.38;100.00
13068;BME280;6600;51.362;6.686;2023-08-17T11:05:41;101482.78;;;20.45;100.00
13068;BME280;6600;51.362;6.686;2023-08-17T11:08:11;101471.09;;;20.49;100.00
13068;BME280;6600;51.362;6.686;2023-08-17T11:10:39;101480.31;;;20.43;100.00
13068;BME280;6600;51.362;6.686;2023-08-17T11:13:04;101468.16;;;20.56;100.00
13068;BME280;6600;51.362;6.686;2023-08-17T11:15:41;101471.44;;;20.58;100.00
13068;BME280;6600;51.362;6.686;2023-08-17T11:18:11;101466.34;;;20.72;100.00
13068;BME280;6600;51.362;6.686;2023-08-17T11:20:38;101463.44;;;20.88;100.00
13068;BME280;6600;51.362;6.686;2023-08-17T11:23:08;101469.41;;;20.90;100.00
13068;BME280;6600;51.362;6.686;2023-08-17T11:25:34;101474.56;;;20.87;100.00
13068;BME280;6600;51.362;6.686;2023-08-17T11:28:00;101480.66;;;21.04;100.00
13068;BME280;6600;51.362;6.686;2023-08-17T11:30:27;101485.13;;;21.20;100.00
13068;BME280;6600;51.362;6.686;2023-08-17T11:32:54;101476.38;;;21.18;100.00
13068;BME280;6600;51.362;6.686;2023-08-17T11:35:20;101479.13;;;21.23;100.00
13068;BME280;6600;51.362;6.686;2023-08-17T11:37:46;101478.34;;;21.43;100.00
13068;BME280;6600;51.362;6.686;2023-08-17T11:40:14;101474.28;;;21.50;100.00
13068;BME280;6600;51.362;6.686;2023-08-17T11:42:39;101475.97;;;21.61;100.00
13068;BME280;6600;51.362;6.686;2023-08-17T11:45:05;101478.69;;;21.61;100.00
13068;BME280;6600;51.362;6.686;2023-08-17T11:47:32;101474.00;;;21.52;100.00
13068;BME280;6600;51.362;6.686;2023-08-17T11:50:01;101476.47;;;21.58;100.00
13068;BME280;6600;51.362;6.686;2023-08-17T11:52:28;101477.03;;;21.65;100.00
13068;BME280;6600;51.362;6.686;2023-08-17T11:54:56;101479.22;;;21.74;99.72
13068;BME280;6600;51.362;6.686;2023-08-17T11:57:22;101483.31;;;21.76;99.35
13068;BME280;6600;51.362;6.686;2023-08-17T11:59:47;101468.59;;;21.77;99.94
13068;BME280;6600;51.362;6.686;2023-08-17T12:02:13;101465.88;;;21.82;99.85
13068;BME280;6600;51.362;6.686;2023-08-17T12:04:38;101465.06;;;21.82;99.62
13068;BME280;6600;51.362;6.686;2023-08-17T12:07:03;101466.69;;;21.83;98.95
13068;BME280;6600;51.362;6.686;2023-08-17T12:09:32;101466.72;;;21.98;98.32
13068;BME280;6600;51.362;6.686;2023-08-17T12:11:59;101467.81;;;21.97;98.89
13068;BME280;6600;51.362;6.686;2023-08-17T12:14:27;101460.94;;;21.89;98.46
13068;BME280;6600;51.362;6.686;2023-08-17T12:16:52;101464.50;;;21.85;99.41
13068;BME280;6600;51.362;6.686;2023-08-17T12:19:19;101461.22;;;21.83;99.01
13068;BME280;6600;51.362;6.686;2023-08-17T12:21:45;101462.63;;;21.90;98.99
13068;BME280;6600;51.362;6.686;2023-08-17T12:24:11;101472.69;;;21.80;99.03
13068;BME280;6600;51.362;6.686;2023-08-17T12:26:43;101467.75;;;21.66;99.33
13068;BME280;6600;51.362;6.686;2023-08-17T12:29:09;101467.75;;;21.66;100.00
13068;BME280;6600;51.362;6.686;2023-08-17T12:31:35;101463.41;;;21.71;100.00
13068;BME280;6600;51.362;6.686;2023-08-17T12:34:01;101458.22;;;21.74;100.00
13068;BME280;6600;51.362;6.686;2023-08-17T12:36:26;101470.78;;;21.80;100.00
13068;BME280;6600;51.362;6.686;2023-08-17T12:38:52;101461.50;;;21.81;100.00
13068;BME280;6600;51.362;6.686;2023-08-17T12:41:17;101459.06;;;21.85;100.00
13068;BME280;6600;51.362;6.686;2023-08-17T12:43:43;101463.69;;;21.84;99.19
13068;BME280;6600;51.362;6.686;2023-08-17T12:46:08;101467.22;;;21.80;99.24
13068;BME280;6600;51.362;6.686;2023-08-17T12:48:33;101460.16;;;21.89;99.27
13068;BME280;6600;51.362;6.686;2023-08-17T12:50:59;101462.31;;;21.77;99.19
13068;BME280;6600;51.362;6.686;2023-08-17T12:53:24;101468.88;;;21.81;99.66
13068;BME280;6600;51.362;6.686;2023-08-17T12:55:49;101454.16;;;21.82;99.15